sensor_id;sensor_type;location;lat;lon;timestamp;P1;durP1;ratioP1;P2;durP2;ratioP2
14141;SDS011;7151;52.246;4.820;2022-07-06T00:01:15;1.10;;;0.90;;
14141;SDS011;7151;52.246;4.820;2022-07-06T00:03:41;1.97;;;0.50;;
14141;SDS011;7151;52.246;4.820;2022-07-06T00:06:06;0.40;;;0.30;;
14141;SDS011;7151;52.246;4.820;2022-07-06T00:08:32;2.00;;;0.50;;
14141;SDS011;7151;52.246;4.820;2022-07-06T00:10:58;1.83;;;0.60;;
14141;SDS011;7151;52.246;4.820;2022-07-06T00:13:24;1.20;;;0.50;;
14141;SDS011;7151;52.246;4.820;2022-07-06T00:15:49;1.77;;;0.37;;
14141;SDS011;7151;52.246;4.820;2022-07-06T00:18:15;1.70;;;0.60;;
14141;SDS011;7151;52.246;4.820;2022-07-06T00:20:40;2.30;;;0.60;;
14141;SDS011;7151;52.246;4.820;2022-07-06T00:23:06;1.30;;;0.47;;
14141;SDS011;7151;52.246;4.820;2022-07-06T00:25:32;1.57;;;0.67;;
14141;SDS011;7151;52.246;4.820;2022-07-06T00:27:57;5.37;;;0.50;;
14141;SDS011;7151;52.246;4.820;2022-07-06T00:30:23;0.87;;;0.60;;
14141;SDS011;7151;52.246;4.820;2022-07-06T00:32:48;0.40;;;0.30;;
14141;SDS011;7151;52.246;4.820;2022-07-06T00:35:14;0.57;;;0.40;;
14141;SDS011;7151;52.246;4.820;2022-07-06T00:37:39;2.97;;;0.53;;
14141;SDS011;7151;52.246;4.820;2022-07-06T00:40:05;0.70;;;0.60;;
14141;SDS011;7151;52.246;4.820;2022-07-06T00:42:39;0.37;;;0.30;;
14141;SDS011;7151;52.246;4.820;2022-07-06T00:45:09;1.33;;;0.40;;
14141;SDS011;7151;52.246;4.820;2022-07-06T00:47:35;1.33;;;0.30;;
14141;SDS011;7151;52.246;4.820;2022-07-06T00:50:01;3.20;;;0.60;;
14141;SDS011;7151;52.246;4.820;2022-07-06T00:55:20;0.50;;;0.40;;
14141;SDS011;7151;52.246;4.820;2022-07-06T00:57:47;0.90;;;0.50;;
14141;SDS011;7151;52.246;4.820;2022-07-06T01:00:14;0.30;;;0.30;;
14141;SDS011;7151;52.246;4.820;2022-07-06T01:02:42;1.13;;;0.40;;
14141;SDS011;7151;52.246;4.820;2022-07-06T01:05:08;1.00;;;0.40;;
14141;SDS011;7151;52.246;4.820;2022-07-06T01:07:35;2.17;;;0.50;;
14141;SDS011;7151;52.246;4.820;2022-07-06T01:10:02;1.23;;;0.30;;
14141;SDS011;7151;52.246;4.820;2022-07-06T01:12:29;0.50;;;0.33;;
14141;SDS011;7151;52.246;4.820;2022-07-06T01:14:54;1.03;;;0.43;;
14141;SDS011;7151;52.246;4.820;2022-07-06T01:17:21;1.10;;;0.40;;
14141;SDS011;7151;52.246;4.820;2022-07-06T01:19:46;3.50;;;0.47;;
14141;SDS011;7151;52.246;4.820;2022-07-06T01:22:12;0.63;;;0.40;;
14141;SDS011;7151;52.246;4.820;2022-07-06T01:24:38;1.27;;;0.60;;
14141;SDS011;7151;52.246;4.820;2022-07-06T01:27:05;0.40;;;0.30;;
14141;SDS011;7151;52.246;4.820;2022-07-06T01:29:31;0.93;;;0.30;;
14141;SDS011;7151;52.246;4.820;2022-07-06T01:31:57;2.10;;;0.53;;
14141;SDS011;7151;52.246;4.820;2022-07-06T01:34:23;0.60;;;0.40;;
14141;SDS011;7151;52.246;4.820;2022-07-06T01:36:49;1.60;;;0.93;;
14141;SDS011;7151;52.246;4.820;2022-07-06T01:39:15;1.50;;;0.50;;
14141;SDS011;7151;52.246;4.820;2022-07-06T01:41:40;1.87;;;0.40;;
14141;SDS011;7151;52.246;4.820;2022-07-06T01:44:06;3.50;;;0.47;;
14141;SDS011;7151;52.246;4.820;2022-07-06T01:46:32;1.80;;;0.50;;
14141;SDS011;7151;52.246;4.820;2022-07-06T01:48:58;3.67;;;0.40;;
14141;SDS011;7151;52.246;4.820;2022-07-06T01:51:24;1.00;;;0.60;;
14141;SDS011;7151;52.246;4.820;2022-07-06T01:53:50;0.50;;;0.40;;
14141;SDS011;7151;52.246;4.820;2022-07-06T01:56:17;0.60;;;0.30;;
14141;SDS011;7151;52.246;4.820;2022-07-06T01:58:44;1.63;;;0.57;;
14141;SDS011;7151;52.246;4.820;2022-07-06T02:01:11;2.07;;;0.50;;
14141;SDS011;7151;52.246;4.820;2022-07-06T02:03:38;3.27;;;0.60;;
14141;SDS011;7151;52.246;4.820;2022-07-06T02:06:04;0.43;;;0.40;;
14141;SDS011;7151;52.246;4.820;2022-07-06T02:08:30;1.37;;;0.40;;
14141;SDS011;7151;52.246;4.820;2022-07-06T02:10:57;1.00;;;0.43;;
14141;SDS011;7151;52.246;4.820;2022-07-06T02:13:22;0.53;;;0.47;;
14141;SDS011;7151;52.246;4.820;2022-07-06T02:15:48;0.87;;;0.40;;
14141;SDS011;7151;52.246;4.820;2022-07-06T02:18:14;2.27;;;0.43;;
14141;SDS011;7151;52.246;4.820;2022-07-06T02:20:39;0.60;;;0.40;;
14141;SDS011;7151;52.246;4.820;2022-07-06T02:23:05;1.27;;;0.50;;
14141;SDS011;7151;52.246;4.820;2022-07-06T02:25:30;0.73;;;0.40;;
14141;SDS011;7151;52.246;4.820;2022-07-06T02:27:56;1.20;;;0.50;;
14141;SDS011;7151;52.246;4.820;2022-07-06T02:30:21;0.30;;;0.20;;
14141;SDS011;7151;52.246;4.820;2022-07-06T02:32:47;1.07;;;0.43;;
14141;SDS011;7151;52.246;4.820;2022-07-06T02:35:12;0.53;;;0.33;;
14141;SDS011;7151;52.246;4.820;2022-07-06T02:37:38;0.30;;;0.30;;
14141;SDS011;7151;52.246;4.820;2022-07-06T02:40:04;0.40;;;0.30;;
14141;SDS011;7151;52.246;4.820;2022-07-06T02:42:30;1.80;;;0.33;;
14141;SDS011;7151;52.246;4.820;2022-07-06T02:44:55;1.87;;;0.40;;
14141;SDS011;7151;52.246;4.820;2022-07-06T02:47:21;1.13;;;0.43;;
14141;SDS011;7151;52.246;4.820;2022-07-06T02:49:47;0.37;;;0.30;;
14141;SDS011;7151;52.246;4.820;2022-07-06T02:52:12;0.87;;;0.33;;
14141;SDS011;7151;52.246;4.820;2022-07-06T02:54:38;0.60;;;0.60;;
14141;SDS011;7151;52.246;4.820;2022-07-06T02:57:04;1.90;;;0.40;;
14141;SDS011;7151;52.246;4.820;2022-07-06T02:59:29;1.37;;;0.30;;
14141;SDS011;7151;52.246;4.820;2022-07-06T03:01:55;0.20;;;0.20;;
14141;SDS011;7151;52.246;4.820;2022-07-06T03:04:20;3.00;;;0.60;;
14141;SDS011;7151;52.246;4.820;2022-07-06T03:06:46;1.80;;;0.40;;
14141;SDS011;7151;52.246;4.820;2022-07-06T03:09:12;0.80;;;0.20;;
14141;SDS011;7151;52.246;4.820;2022-07-06T03:11:37;0.40;;;0.30;;
14141;SDS011;7151;52.246;4.820;2022-07-06T03:14:03;0.97;;;0.27;;
14141;SDS011;7151;52.246;4.820;2022-07-06T03:16:29;1.30;;;0.30;;
14141;SDS011;7151;52.246;4.820;2022-07-06T03:18:55;0.33;;;0.23;;
14141;SDS011;7151;52.246;4.820;2022-07-06T03:21:21;1.77;;;0.30;;
14141;SDS011;7151;52.246;4.820;2022-07-06T03:23:47;0.40;;;0.40;;
14141;SDS011;7151;52.246;4.820;2022-07-06T03:26:13;0.53;;;0.37;;
14141;SDS011;7151;52.246;4.820;2022-07-06T03:28:38;1.17;;;0.50;;
14141;SDS011;7151;52.246;4.820;2022-07-06T03:31:04;0.63;;;0.40;;
14141;SDS011;7151;52.246;4.820;2022-07-06T03:33:30;0.43;;;0.43;;
14141;SDS011;7151;52.246;4.820;2022-07-06T03:35:55;0.40;;;0.30;;
14141;SDS011;7151;52.246;4.820;2022-07-06T03:38:21;0.77;;;0.40;;
14141;SDS011;7151;52.246;4.820;2022-07-06T03:40:46;1.23;;;0.40;;
14141;SDS011;7151;52.246;4.820;2022-07-06T03:43:12;0.40;;;0.33;;
14141;SDS011;7151;52.246;4.820;2022-07-06T03:45:38;0.40;;;0.20;;
14141;SDS011;7151;52.246;4.820;2022-07-06T03:48:03;0.83;;;0.40;;
14141;SDS011;7151;52.246;4.820;2022-07-06T03:50:29;0.40;;;0.40;;
14141;SDS011;7151;52.246;4.820;2022-07-06T03:52:55;1.13;;;0.43;;
14141;SDS011;7151;52.246;4.820;2022-07-06T03:55:21;0.73;;;0.40;;
14141;SDS011;7151;52.246;4.820;2022-07-06T03:57:46;1.90;;;0.33;;
14141;SDS011;7151;52.246;4.820;2022-07-06T04:00:12;1.37;;;0.60;;
14141;SDS011;7151;52.246;4.820;2022-07-06T04:02:38;0.30;;;0.20;;
14141;SDS011;7151;52.246;4.820;2022-07-06T04:05:04;0.70;;;0.40;;
14141;SDS011;7151;52.246;4.820;2022-07-06T04:07:30;2.20;;;0.30;;
14141;SDS011;7151;52.246;4.820;2022-07-06T04:09:55;0.50;;;0.47;;
14141;SDS011;7151;52.246;4.820;2022-07-06T04:12:21;2.53;;;0.37;;
14141;SDS011;7151;52.246;4.820;2022-07-06T04:14:46;0.43;;;0.30;;
14141;SDS011;7151;52.246;4.820;2022-07-06T04:17:12;0.70;;;0.40;;
14141;SDS011;7151;52.246;4.820;2022-07-06T04:19:56;1.87;;;0.60;;
14141;SDS011;7151;52.246;4.820;2022-07-06T04:22:22;1.27;;;0.40;;
14141;SDS011;7151;52.246;4.820;2022-07-06T04:24:48;0.70;;;0.30;;
14141;SDS011;7151;52.246;4.820;2022-07-06T04:27:14;2.27;;;0.30;;
14141;SDS011;7151;52.246;4.820;2022-07-06T04:29:39;0.57;;;0.30;;
14141;SDS011;7151;52.246;4.820;2022-07-06T04:32:05;1.40;;;0.30;;
14141;SDS011;7151;52.246;4.820;2022-07-06T04:34:31;0.33;;;0.33;;
14141;SDS011;7151;52.246;4.820;2022-07-06T04:36:56;1.50;;;0.40;;
14141;SDS011;7151;52.246;4.820;2022-07-06T04:39:22;0.57;;;0.40;;
14141;SDS011;7151;52.246;4.820;2022-07-06T04:41:47;0.90;;;0.30;;
14141;SDS011;7151;52.246;4.820;2022-07-06T04:44:13;1.97;;;0.20;;
14141;SDS011;7151;52.246;4.820;2022-07-06T04:46:38;0.50;;;0.30;;
14141;SDS011;7151;52.246;4.820;2022-07-06T04:49:04;0.97;;;0.50;;
14141;SDS011;7151;52.246;4.820;2022-07-06T04:51:29;0.73;;;0.40;;
14141;SDS011;7151;52.246;4.820;2022-07-06T04:53:55;2.77;;;0.67;;
14141;SDS011;7151;52.246;4.820;2022-07-06T04:56:20;1.70;;;0.57;;
14141;SDS011;7151;52.246;4.820;2022-07-06T04:58:46;1.00;;;0.50;;
14141;SDS011;7151;52.246;4.820;2022-07-06T05:01:11;0.93;;;0.63;;
14141;SDS011;7151;52.246;4.820;2022-07-06T05:03:37;0.30;;;0.30;;
14141;SDS011;7151;52.246;4.820;2022-07-06T05:06:05;1.80;;;0.60;;
14141;SDS011;7151;52.246;4.820;2022-07-06T05:08:31;0.33;;;0.20;;
14141;SDS011;7151;52.246;4.820;2022-07-06T05:10:57;2.43;;;0.60;;
14141;SDS011;7151;52.246;4.820;2022-07-06T05:13:23;0.33;;;0.27;;
14141;SDS011;7151;52.246;4.820;2022-07-06T05:15:48;0.80;;;0.40;;
14141;SDS011;7151;52.246;4.820;2022-07-06T05:18:14;1.37;;;0.43;;
14141;SDS011;7151;52.246;4.820;2022-07-06T05:20:40;0.97;;;0.50;;
14141;SDS011;7151;52.246;4.820;2022-07-06T05:23:05;1.80;;;0.50;;
14141;SDS011;7151;52.246;4.820;2022-07-06T05:25:31;1.17;;;0.60;;
14141;SDS011;7151;52.246;4.820;2022-07-06T05:27:57;3.50;;;0.50;;
14141;SDS011;7151;52.246;4.820;2022-07-06T05:30:24;0.93;;;0.40;;
14141;SDS011;7151;52.246;4.820;2022-07-06T05:32:50;0.80;;;0.50;;
14141;SDS011;7151;52.246;4.820;2022-07-06T05:35:15;2.03;;;0.73;;
14141;SDS011;7151;52.246;4.820;2022-07-06T05:37:41;1.00;;;0.50;;
14141;SDS011;7151;52.246;4.820;2022-07-06T05:40:07;1.80;;;0.70;;
14141;SDS011;7151;52.246;4.820;2022-07-06T05:42:33;1.83;;;0.60;;
14141;SDS011;7151;52.246;4.820;2022-07-06T05:44:59;0.87;;;0.40;;
14141;SDS011;7151;52.246;4.820;2022-07-06T05:47:24;2.03;;;0.50;;
14141;SDS011;7151;52.246;4.820;2022-07-06T05:50:08;2.00;;;0.70;;
14141;SDS011;7151;52.246;4.820;2022-07-06T05:52:37;0.50;;;0.40;;
14141;SDS011;7151;52.246;4.820;2022-07-06T05:55:03;2.70;;;0.40;;
14141;SDS011;7151;52.246;4.820;2022-07-06T05:57:28;0.70;;;0.50;;
14141;SDS011;7151;52.246;4.820;2022-07-06T05:59:54;2.13;;;0.70;;
14141;SDS011;7151;52.246;4.820;2022-07-06T06:02:19;2.10;;;0.70;;
14141;SDS011;7151;52.246;4.820;2022-07-06T06:04:45;0.83;;;0.30;;
14141;SDS011;7151;52.246;4.820;2022-07-06T06:07:10;1.67;;;0.50;;
14141;SDS011;7151;52.246;4.820;2022-07-06T06:09:36;13.83;;;2.47;;
14141;SDS011;7151;52.246;4.820;2022-07-06T06:12:02;2.57;;;0.90;;
14141;SDS011;7151;52.246;4.820;2022-07-06T06:14:27;0.20;;;0.20;;
14141;SDS011;7151;52.246;4.820;2022-07-06T06:16:53;1.33;;;0.40;;
14141;SDS011;7151;52.246;4.820;2022-07-06T06:19:18;3.97;;;0.30;;
14141;SDS011;7151;52.246;4.820;2022-07-06T06:21:44;0.67;;;0.40;;
14141;SDS011;7151;52.246;4.820;2022-07-06T06:24:09;0.53;;;0.33;;
14141;SDS011;7151;52.246;4.820;2022-07-06T06:26:35;0.63;;;0.27;;
14141;SDS011;7151;52.246;4.820;2022-07-06T06:29:01;0.30;;;0.30;;
14141;SDS011;7151;52.246;4.820;2022-07-06T06:31:26;0.37;;;0.27;;
14141;SDS011;7151;52.246;4.820;2022-07-06T06:33:52;1.73;;;0.30;;
14141;SDS011;7151;52.246;4.820;2022-07-06T06:36:18;0.87;;;0.30;;
14141;SDS011;7151;52.246;4.820;2022-07-06T06:38:43;0.20;;;0.20;;
14141;SDS011;7151;52.246;4.820;2022-07-06T06:41:09;0.83;;;0.40;;
14141;SDS011;7151;52.246;4.820;2022-07-06T06:43:35;2.63;;;0.47;;
14141;SDS011;7151;52.246;4.820;2022-07-06T06:46:00;0.30;;;0.30;;
14141;SDS011;7151;52.246;4.820;2022-07-06T06:48:26;0.33;;;0.33;;
14141;SDS011;7151;52.246;4.820;2022-07-06T06:50:51;1.07;;;0.50;;
14141;SDS011;7151;52.246;4.820;2022-07-06T06:53:17;0.47;;;0.30;;
14141;SDS011;7151;52.246;4.820;2022-07-06T06:55:43;1.07;;;0.40;;
14141;SDS011;7151;52.246;4.820;2022-07-06T06:58:08;2.37;;;0.33;;
14141;SDS011;7151;52.246;4.820;2022-07-06T07:00:34;1.17;;;0.50;;
14141;SDS011;7151;52.246;4.820;2022-07-06T07:02:59;9.03;;;1.70;;
14141;SDS011;7151;52.246;4.820;2022-07-06T07:05:25;5.87;;;1.20;;
14141;SDS011;7151;52.246;4.820;2022-07-06T07:07:51;2.50;;;0.90;;
14141;SDS011;7151;52.246;4.820;2022-07-06T07:10:16;1.17;;;0.37;;
14141;SDS011;7151;52.246;4.820;2022-07-06T07:12:43;0.30;;;0.30;;
14141;SDS011;7151;52.246;4.820;2022-07-06T07:15:09;0.87;;;0.43;;
14141;SDS011;7151;52.246;4.820;2022-07-06T07:17:35;1.00;;;0.30;;
14141;SDS011;7151;52.246;4.820;2022-07-06T07:20:01;0.43;;;0.30;;
14141;SDS011;7151;52.246;4.820;2022-07-06T07:22:26;0.90;;;0.30;;
14141;SDS011;7151;52.246;4.820;2022-07-06T07:24:52;1.40;;;0.40;;
14141;SDS011;7151;52.246;4.820;2022-07-06T07:27:17;0.70;;;0.40;;
14141;SDS011;7151;52.246;4.820;2022-07-06T07:29:43;1.23;;;0.60;;
14141;SDS011;7151;52.246;4.820;2022-07-06T07:32:08;0.60;;;0.40;;
14141;SDS011;7151;52.246;4.820;2022-07-06T07:34:34;0.53;;;0.40;;
14141;SDS011;7151;52.246;4.820;2022-07-06T07:36:59;0.40;;;0.30;;
14141;SDS011;7151;52.246;4.820;2022-07-06T07:39:26;0.20;;;0.20;;
14141;SDS011;7151;52.246;4.820;2022-07-06T07:41:52;0.30;;;0.23;;
14141;SDS011;7151;52.246;4.820;2022-07-06T07:44:18;0.50;;;0.30;;
14141;SDS011;7151;52.246;4.820;2022-07-06T07:46:43;0.40;;;0.30;;
14141;SDS011;7151;52.246;4.820;2022-07-06T07:49:09;0.70;;;0.40;;
14141;SDS011;7151;52.246;4.820;2022-07-06T07:51:34;0.43;;;0.20;;
14141;SDS011;7151;52.246;4.820;2022-07-06T07:54:00;1.00;;;0.30;;
14141;SDS011;7151;52.246;4.820;2022-07-06T07:56:25;1.93;;;0.40;;
14141;SDS011;7151;52.246;4.820;2022-07-06T07:58:51;0.30;;;0.30;;
14141;SDS011;7151;52.246;4.820;2022-07-06T08:01:16;0.40;;;0.27;;
14141;SDS011;7151;52.246;4.820;2022-07-06T08:03:42;0.30;;;0.30;;
14141;SDS011;7151;52.246;4.820;2022-07-06T08:06:08;0.60;;;0.30;;
14141;SDS011;7151;52.246;4.820;2022-07-06T08:08:33;0.97;;;0.30;;
14141;SDS011;7151;52.246;4.820;2022-07-06T08:10:59;0.30;;;0.30;;
14141;SDS011;7151;52.246;4.820;2022-07-06T08:13:24;0.37;;;0.30;;
14141;SDS011;7151;52.246;4.820;2022-07-06T08:15:50;1.13;;;0.30;;
14141;SDS011;7151;52.246;4.820;2022-07-06T08:18:15;0.30;;;0.30;;
14141;SDS011;7151;52.246;4.820;2022-07-06T08:20:41;1.13;;;0.37;;
14141;SDS011;7151;52.246;4.820;2022-07-06T08:23:07;1.00;;;0.40;;
14141;SDS011;7151;52.246;4.820;2022-07-06T08:25:32;0.30;;;0.30;;
14141;SDS011;7151;52.246;4.820;2022-07-06T08:27:58;0.30;;;0.30;;
14141;SDS011;7151;52.246;4.820;2022-07-06T08:30:23;2.10;;;0.40;;
14141;SDS011;7151;52.246;4.820;2022-07-06T08:32:49;0.67;;;0.30;;
14141;SDS011;7151;52.246;4.820;2022-07-06T08:35:14;0.40;;;0.23;;
14141;SDS011;7151;52.246;4.820;2022-07-06T08:37:40;0.30;;;0.30;;
14141;SDS011;7151;52.246;4.820;2022-07-06T08:40:06;0.97;;;0.27;;
14141;SDS011;7151;52.246;4.820;2022-07-06T08:42:33;1.53;;;0.50;;
14141;SDS011;7151;52.246;4.820;2022-07-06T08:45:00;0.30;;;0.30;;
14141;SDS011;7151;52.246;4.820;2022-07-06T08:47:27;0.60;;;0.17;;
14141;SDS011;7151;52.246;4.820;2022-07-06T08:49:53;3.30;;;0.50;;
14141;SDS011;7151;52.246;4.820;2022-07-06T08:52:19;2.27;;;0.40;;
14141;SDS011;7151;52.246;4.820;2022-07-06T08:54:45;0.30;;;0.30;;
14141;SDS011;7151;52.246;4.820;2022-07-06T08:57:11;0.97;;;0.47;;
14141;SDS011;7151;52.246;4.820;2022-07-06T08:59:38;0.83;;;0.30;;
14141;SDS011;7151;52.246;4.820;2022-07-06T09:02:04;1.70;;;0.30;;
14141;SDS011;7151;52.246;4.820;2022-07-06T09:04:30;0.93;;;0.50;;
14141;SDS011;7151;52.246;4.820;2022-07-06T09:07:00;0.30;;;0.27;;
14141;SDS011;7151;52.246;4.820;2022-07-06T09:09:25;0.40;;;0.30;;
14141;SDS011;7151;52.246;4.820;2022-07-06T09:11:55;1.17;;;0.37;;
14141;SDS011;7151;52.246;4.820;2022-07-06T09:14:22;0.63;;;0.20;;
14141;SDS011;7151;52.246;4.820;2022-07-06T09:16:51;1.70;;;0.40;;
14141;SDS011;7151;52.246;4.820;2022-07-06T09:19:26;0.70;;;0.40;;
14141;SDS011;7151;52.246;4.820;2022-07-06T09:21:52;1.23;;;0.30;;
14141;SDS011;7151;52.246;4.820;2022-07-06T09:24:19;0.57;;;0.30;;
14141;SDS011;7151;52.246;4.820;2022-07-06T09:26:44;1.07;;;0.30;;
14141;SDS011;7151;52.246;4.820;2022-07-06T09:29:12;1.43;;;0.20;;
14141;SDS011;7151;52.246;4.820;2022-07-06T09:31:38;0.20;;;0.20;;
14141;SDS011;7151;52.246;4.820;2022-07-06T09:34:08;0.40;;;0.40;;
14141;SDS011;7151;52.246;4.820;2022-07-06T09:36:39;1.80;;;0.40;;
14141;SDS011;7151;52.246;4.820;2022-07-06T09:39:25;0.33;;;0.20;;
14141;SDS011;7151;52.246;4.820;2022-07-06T09:41:53;0.30;;;0.27;;
14141;SDS011;7151;52.246;4.820;2022-07-06T09:44:28;0.20;;;0.20;;
14141;SDS011;7151;52.246;4.820;2022-07-06T09:46:55;0.67;;;0.37;;
14141;SDS011;7151;52.246;4.820;2022-07-06T09:49:25;2.63;;;0.30;;
14141;SDS011;7151;52.246;4.820;2022-07-06T09:51:52;0.47;;;0.40;;
14141;SDS011;7151;52.246;4.820;2022-07-06T09:54:23;0.43;;;0.30;;
14141;SDS011;7151;52.246;4.820;2022-07-06T09:56:50;1.20;;;0.30;;
14141;SDS011;7151;52.246;4.820;2022-07-06T09:59:21;0.70;;;0.30;;
14141;SDS011;7151;52.246;4.820;2022-07-06T10:01:50;0.40;;;0.30;;
14141;SDS011;7151;52.246;4.820;2022-07-06T10:04:17;0.20;;;0.20;;
14141;SDS011;7151;52.246;4.820;2022-07-06T10:06:45;0.60;;;0.40;;
14141;SDS011;7151;52.246;4.820;2022-07-06T10:09:11;0.90;;;0.30;;
14141;SDS011;7151;52.246;4.820;2022-07-06T10:11:38;0.30;;;0.30;;
14141;SDS011;7151;52.246;4.820;2022-07-06T10:14:06;1.50;;;0.30;;
14141;SDS011;7151;52.246;4.820;2022-07-06T10:16:33;0.30;;;0.30;;
14141;SDS011;7151;52.246;4.820;2022-07-06T10:19:03;1.47;;;0.70;;
14141;SDS011;7151;52.246;4.820;2022-07-06T10:21:31;0.87;;;0.20;;
14141;SDS011;7151;52.246;4.820;2022-07-06T10:23:58;1.00;;;0.40;;
14141;SDS011;7151;52.246;4.820;2022-07-06T10:26:25;0.30;;;0.20;;
14141;SDS011;7151;52.246;4.820;2022-07-06T10:28:51;1.37;;;0.30;;
14141;SDS011;7151;52.246;4.820;2022-07-06T10:31:18;1.60;;;0.40;;
14141;SDS011;7151;52.246;4.820;2022-07-06T10:33:45;0.50;;;0.40;;
14141;SDS011;7151;52.246;4.820;2022-07-06T10:36:12;1.80;;;0.50;;
14141;SDS011;7151;52.246;4.820;2022-07-06T10:38:39;1.70;;;0.30;;
14141;SDS011;7151;52.246;4.820;2022-07-06T10:41:06;0.40;;;0.40;;
14141;SDS011;7151;52.246;4.820;2022-07-06T10:43:37;0.50;;;0.27;;
14141;SDS011;7151;52.246;4.820;2022-07-06T10:46:07;0.43;;;0.30;;
14141;SDS011;7151;52.246;4.820;2022-07-06T10:48:36;1.20;;;0.73;;
14141;SDS011;7151;52.246;4.820;2022-07-06T10:51:03;1.60;;;0.43;;
14141;SDS011;7151;52.246;4.820;2022-07-06T10:53:31;2.43;;;0.30;;
14141;SDS011;7151;52.246;4.820;2022-07-06T10:55:59;0.80;;;0.30;;
14141;SDS011;7151;52.246;4.820;2022-07-06T11:01:02;0.97;;;0.43;;
14141;SDS011;7151;52.246;4.820;2022-07-06T11:03:32;0.97;;;0.43;;
14141;SDS011;7151;52.246;4.820;2022-07-06T11:06:05;0.70;;;0.30;;
14141;SDS011;7151;52.246;4.820;2022-07-06T11:09:05;0.37;;;0.30;;
14141;SDS011;7151;52.246;4.820;2022-07-06T11:13:58;1.10;;;0.40;;
14141;SDS011;7151;52.246;4.820;2022-07-06T11:16:24;0.40;;;0.30;;
14141;SDS011;7151;52.246;4.820;2022-07-06T11:19:10;0.67;;;0.50;;
14141;SDS011;7151;52.246;4.820;2022-07-06T11:24:17;0.83;;;0.40;;
14141;SDS011;7151;52.246;4.820;2022-07-06T11:26:45;1.30;;;0.50;;
14141;SDS011;7151;52.246;4.820;2022-07-06T11:29:12;0.60;;;0.40;;
14141;SDS011;7151;52.246;4.820;2022-07-06T11:31:40;2.20;;;0.50;;
14141;SDS011;7151;52.246;4.820;2022-07-06T11:34:08;0.43;;;0.40;;
14141;SDS011;7151;52.246;4.820;2022-07-06T11:36:35;0.83;;;0.53;;
14141;SDS011;7151;52.246;4.820;2022-07-06T11:39:03;1.43;;;0.40;;
14141;SDS011;7151;52.246;4.820;2022-07-06T11:41:33;1.97;;;0.40;;
14141;SDS011;7151;52.246;4.820;2022-07-06T11:43:59;0.70;;;0.50;;
14141;SDS011;7151;52.246;4.820;2022-07-06T11:46:34;0.50;;;0.40;;
14141;SDS011;7151;52.246;4.820;2022-07-06T11:49:02;0.93;;;0.40;;
14141;SDS011;7151;52.246;4.820;2022-07-06T11:51:30;1.67;;;0.50;;
14141;SDS011;7151;52.246;4.820;2022-07-06T11:53:57;0.97;;;0.50;;
14141;SDS011;7151;52.246;4.820;2022-07-06T11:56:27;0.50;;;0.40;;
14141;SDS011;7151;52.246;4.820;2022-07-06T11:58:54;1.03;;;0.30;;
14141;SDS011;7151;52.246;4.820;2022-07-06T12:01:24;0.57;;;0.50;;
14141;SDS011;7151;52.246;4.820;2022-07-06T12:03:52;2.17;;;0.50;;
14141;SDS011;7151;52.246;4.820;2022-07-06T12:06:19;0.93;;;0.50;;
14141;SDS011;7151;52.246;4.820;2022-07-06T12:08:50;1.97;;;0.40;;
14141;SDS011;7151;52.246;4.820;2022-07-06T12:11:21;0.53;;;0.40;;
14141;SDS011;7151;52.246;4.820;2022-07-06T12:13:49;0.53;;;0.40;;
14141;SDS011;7151;52.246;4.820;2022-07-06T12:16:15;1.57;;;0.53;;
14141;SDS011;7151;52.246;4.820;2022-07-06T12:18:42;0.47;;;0.40;;
14141;SDS011;7151;52.246;4.820;2022-07-06T12:21:13;0.83;;;0.40;;
14141;SDS011;7151;52.246;4.820;2022-07-06T12:26:17;1.13;;;0.50;;
14141;SDS011;7151;52.246;4.820;2022-07-06T12:28:58;1.50;;;0.67;;
14141;SDS011;7151;52.246;4.820;2022-07-06T12:31:35;0.83;;;0.40;;
14141;SDS011;7151;52.246;4.820;2022-07-06T12:34:02;2.00;;;0.67;;
14141;SDS011;7151;52.246;4.820;2022-07-06T12:36:29;2.60;;;0.67;;
14141;SDS011;7151;52.246;4.820;2022-07-06T12:38:55;2.00;;;0.60;;
14141;SDS011;7151;52.246;4.820;2022-07-06T12:41:25;1.17;;;0.80;;
14141;SDS011;7151;52.246;4.820;2022-07-06T12:44:00;0.57;;;0.47;;
14141;SDS011;7151;52.246;4.820;2022-07-06T12:46:37;0.53;;;0.40;;
14141;SDS011;7151;52.246;4.820;2022-07-06T12:54:31;0.83;;;0.57;;
14141;SDS011;7151;52.246;4.820;2022-07-06T12:59:34;0.30;;;0.30;;
14141;SDS011;7151;52.246;4.820;2022-07-06T13:02:01;0.37;;;0.37;;
14141;SDS011;7151;52.246;4.820;2022-07-06T13:04:28;1.07;;;0.30;;
14141;SDS011;7151;52.246;4.820;2022-07-06T13:06:55;1.10;;;0.60;;
14141;SDS011;7151;52.246;4.820;2022-07-06T13:09:21;4.90;;;0.80;;
14141;SDS011;7151;52.246;4.820;2022-07-06T13:11:47;2.30;;;0.70;;
14141;SDS011;7151;52.246;4.820;2022-07-06T13:14:14;1.57;;;0.60;;
14141;SDS011;7151;52.246;4.820;2022-07-06T13:16:40;0.87;;;0.50;;
14141;SDS011;7151;52.246;4.820;2022-07-06T13:19:05;0.73;;;0.73;;
14141;SDS011;7151;52.246;4.820;2022-07-06T13:21:32;1.03;;;0.60;;
14141;SDS011;7151;52.246;4.820;2022-07-06T13:23:57;0.97;;;0.53;;
14141;SDS011;7151;52.246;4.820;2022-07-06T13:26:23;1.30;;;0.67;;
14141;SDS011;7151;52.246;4.820;2022-07-06T13:28:48;1.90;;;0.70;;
14141;SDS011;7151;52.246;4.820;2022-07-06T13:31:14;2.33;;;0.50;;
14141;SDS011;7151;52.246;4.820;2022-07-06T13:33:39;1.27;;;0.70;;
14141;SDS011;7151;52.246;4.820;2022-07-06T13:36:05;1.70;;;0.80;;
14141;SDS011;7151;52.246;4.820;2022-07-06T13:38:31;1.27;;;0.80;;
14141;SDS011;7151;52.246;4.820;2022-07-06T13:40:56;1.33;;;0.70;;
14141;SDS011;7151;52.246;4.820;2022-07-06T13:43:22;1.57;;;0.80;;
14141;SDS011;7151;52.246;4.820;2022-07-06T13:45:48;1.50;;;0.83;;
14141;SDS011;7151;52.246;4.820;2022-07-06T13:48:13;1.77;;;0.70;;
14141;SDS011;7151;52.246;4.820;2022-07-06T13:50:39;2.57;;;1.00;;
14141;SDS011;7151;52.246;4.820;2022-07-06T13:53:05;2.27;;;0.83;;
14141;SDS011;7151;52.246;4.820;2022-07-06T13:55:31;2.53;;;0.90;;
14141;SDS011;7151;52.246;4.820;2022-07-06T13:57:57;2.57;;;1.00;;
14141;SDS011;7151;52.246;4.820;2022-07-06T14:00:23;1.53;;;1.33;;
14141;SDS011;7151;52.246;4.820;2022-07-06T14:02:49;2.70;;;0.90;;
14141;SDS011;7151;52.246;4.820;2022-07-06T14:05:15;2.93;;;1.23;;
14141;SDS011;7151;52.246;4.820;2022-07-06T14:07:40;1.13;;;1.03;;
14141;SDS011;7151;52.246;4.820;2022-07-06T14:10:06;1.43;;;1.30;;
14141;SDS011;7151;52.246;4.820;2022-07-06T14:12:32;2.60;;;1.60;;
14141;SDS011;7151;52.246;4.820;2022-07-06T14:14:58;3.90;;;1.70;;
14141;SDS011;7151;52.246;4.820;2022-07-06T14:17:23;2.67;;;2.03;;
14141;SDS011;7151;52.246;4.820;2022-07-06T14:19:51;3.77;;;1.77;;
14141;SDS011;7151;52.246;4.820;2022-07-06T14:22:16;1.73;;;1.50;;
14141;SDS011;7151;52.246;4.820;2022-07-06T14:24:42;3.00;;;1.90;;
14141;SDS011;7151;52.246;4.820;2022-07-06T14:27:08;3.40;;;2.33;;
14141;SDS011;7151;52.246;4.820;2022-07-06T14:29:34;4.37;;;2.57;;
14141;SDS011;7151;52.246;4.820;2022-07-06T14:31:59;7.23;;;2.60;;
14141;SDS011;7151;52.246;4.820;2022-07-06T14:34:25;5.43;;;2.73;;
14141;SDS011;7151;52.246;4.820;2022-07-06T14:36:50;3.57;;;2.17;;
14141;SDS011;7151;52.246;4.820;2022-07-06T14:39:16;3.50;;;1.97;;
14141;SDS011;7151;52.246;4.820;2022-07-06T14:41:42;3.30;;;2.00;;
14141;SDS011;7151;52.246;4.820;2022-07-06T14:44:07;3.20;;;2.00;;
14141;SDS011;7151;52.246;4.820;2022-07-06T14:46:33;3.20;;;2.10;;
14141;SDS011;7151;52.246;4.820;2022-07-06T14:48:59;2.67;;;1.60;;
14141;SDS011;7151;52.246;4.820;2022-07-06T14:51:25;1.93;;;1.20;;
14141;SDS011;7151;52.246;4.820;2022-07-06T14:53:51;4.00;;;1.30;;
14141;SDS011;7151;52.246;4.820;2022-07-06T14:56:16;2.90;;;1.63;;
14141;SDS011;7151;52.246;4.820;2022-07-06T14:58:42;2.63;;;1.60;;
14141;SDS011;7151;52.246;4.820;2022-07-06T15:01:07;3.57;;;1.70;;
14141;SDS011;7151;52.246;4.820;2022-07-06T15:03:33;3.40;;;1.73;;
14141;SDS011;7151;52.246;4.820;2022-07-06T15:05:59;2.67;;;1.90;;
14141;SDS011;7151;52.246;4.820;2022-07-06T15:08:24;4.83;;;2.10;;
14141;SDS011;7151;52.246;4.820;2022-07-06T15:10:50;2.33;;;1.40;;
14141;SDS011;7151;52.246;4.820;2022-07-06T15:13:15;4.27;;;1.87;;
14141;SDS011;7151;52.246;4.820;2022-07-06T15:15:41;8.90;;;2.10;;
14141;SDS011;7151;52.246;4.820;2022-07-06T15:18:07;4.90;;;1.57;;